Time;durP1;ratioP1;P1;durP2;ratioP2;P2;SDS_P1;SDS_P2;PMS_P1;PMS_P2;Temp;Humidity;BMP_temperature;BMP_pressure;BME280_temperature;BME280_humidity;BME280_pressure;Samples;Min_cycle;Max_cycle;Signal;HPM_P1;HPM_P2
2021/04/20 00:00:35;;;;;;;;;;;256.30;2252.80;;;;;;5016051;28;20036;-80
2021/04/20 00:03:01;;;;;;;99.93;54.30;;;256.40;2252.80;;;;;;5015886;28;19910;-81
2021/04/20 00:05:27;;;;;;;;;;;256.40;2252.80;;;;;;4998321;28;20030;-80
2021/04/20 00:07:53;;;;;;;71.68;38.17;;;256.30;2252.80;;;;;;4979465;28;19922;-80
2021/04/20 00:10:19;;;;;;;;;;;256.20;2252.80;;;;;;4996351;28;20037;-81
2021/04/20 00:12:45;;;;;;;77.38;42.97;;;256.30;2252.80;;;;;;4978559;28;20009;-81
2021/04/20 00:15:15;;;;;;;61.92;36.92;;;256.50;2252.80;;;;;;4978410;28;20105;-80
2021/04/20 00:17:41;;;;;;;72.38;42.25;;;256.50;2252.80;;;;;;4995879;28;20033;-79
2021/04/20 00:20:09;;;;;;;74.15;43.72;;;256.40;2252.80;;;;;;4995701;28;20049;-80
2021/04/20 00:22:35;;;;;;;74.15;40.78;;;256.50;2252.80;;;;;;4995643;28;20022;-80
2021/04/20 00:25:01;;;;;;;80.00;40.42;;;256.40;2252.80;;;;;;4977223;28;20041;-81
2021/04/20 00:27:27;;;;;;;;;;;256.40;2252.80;;;;;;4995507;28;20103;-81
2021/04/20 00:29:53;;;;;;;38.78;23.90;;;256.50;2252.80;;;;;;4978296;28;20359;-81
2021/04/20 00:32:18;;;;;;;31.75;20.40;;;256.50;2252.80;;;;;;4978212;28;20029;-81
2021/04/20 00:34:44;;;;;;;;;;;256.50;2252.80;;;;;;4995351;28;20361;-81
2021/04/20 00:37:10;;;;;;;34.72;20.15;;;256.60;2252.80;;;;;;4995407;28;19918;-82
2021/04/20 00:39:37;;;;;;;;;;;256.70;2252.80;;;;;;4995114;28;20038;-80
2021/04/20 00:42:06;;;;;;;28.42;16.30;;;256.60;2227.20;;;;;;4993931;28;19910;-80
2021/04/20 00:44:32;;;;;;;29.10;19.13;;;256.60;2252.80;;;;;;4992545;28;20030;-81
2021/04/20 00:46:59;;;;;;;31.52;19.35;;;256.60;2252.80;;;;;;4995040;28;20033;-81
2021/04/20 00:49:25;;;;;;;34.33;20.50;;;256.60;2252.80;;;;;;4995308;28;20057;-81
2021/04/20 00:51:52;;;;;;;32.20;18.98;;;256.60;2252.80;;;;;;4977455;28;20034;-81
2021/04/20 00:54:18;;;;;;;32.60;19.70;;;256.50;2252.80;;;;;;4995315;28;20037;-80
2021/04/20 00:56:44;;;;;;;31.42;18.58;;;256.60;2252.80;;;;;;5014833;28;20075;-81
2021/04/20 00:59:10;;;;;;;38.25;21.27;;;256.70;2227.20;;;;;;4996833;28;20065;-80
2021/04/20 01:01:36;;;;;;;35.15;20.80;;;256.70;2252.80;;;;;;5014690;28;20489;-81
2021/04/20 01:04:02;;;;;;;;;;;256.70;2227.20;;;;;;4996777;28;20034;-81
2021/04/20 01:06:27;;;;;;;29.65;18.17;;;256.70;2227.20;;;;;;5020565;28;19927;-82
2021/04/20 01:08:53;;;;;;;29.85;18.95;;;256.50;2252.80;;;;;;5034425;28;20052;-82
2021/04/20 01:11:20;;;;;;;;;;;256.50;2252.80;;;;;;5026237;28;20444;-80
2021/04/20 01:13:46;;;;;;;31.45;19.83;;;256.60;2252.80;;;;;;5014216;28;19905;-80
2021/04/20 01:16:13;;;;;;;28.38;18.08;;;256.50;2252.80;;;;;;4996983;28;20068;-81
2021/04/20 01:18:40;;;;;;;28.50;18.70;;;256.50;2252.80;;;;;;4997110;28;20093;-81
2021/04/20 01:21:12;;;;;;;30.88;20.00;;;256.50;2252.80;;;;;;4996781;28;20038;-81
2021/04/20 01:23:47;;;;;;;30.60;19.73;;;256.50;2252.80;;;;;;5014534;28;20048;-81
2021/04/20 01:26:13;;;;;;;31.80;20.30;;;256.40;2252.80;;;;;;5013962;28;20526;-80
2021/04/20 01:28:39;;;;;;;31.85;19.92;;;256.30;2252.80;;;;;;5014456;28;20026;-81
2021/04/20 01:31:05;;;;;;;31.73;20.05;;;256.20;2252.80;;;;;;4996291;28;20030;-80
2021/04/20 01:33:32;;;;;;;33.13;21.48;;;256.20;2252.80;;;;;;5013914;28;20030;-80
2021/04/20 01:35:58;;;;;;;35.25;22.63;;;256.10;2252.80;;;;;;4995846;28;20183;-80
2021/04/20 01:38:24;;;;;;;32.53;20.88;;;256.10;2252.80;;;;;;4995987;28;20033;-80
2021/04/20 01:40:50;;;;;;;;;;;256.20;2252.80;;;;;;4995978;28;20067;-79
2021/04/20 01:43:16;;;;;;;37.40;22.42;;;256.10;2252.80;;;;;;5013325;28;20362;-80
2021/04/20 01:45:43;;;;;;;37.45;23.75;;;256.00;2252.80;;;;;;5007742;28;20022;-79
2021/04/20 01:48:12;;;;;;;39.80;22.95;;;256.00;2252.80;;;;;;5012744;28;20038;-79
2021/04/20 01:50:42;;;;;;;37.20;22.15;;;256.00;2252.80;;;;;;5009568;28;20356;-79
2021/04/20 01:53:09;;;;;;;34.33;21.42;;;256.10;2252.80;;;;;;4998579;28;20057;-79
2021/04/20 01:55:38;;;;;;;36.20;22.13;;;256.20;2252.80;;;;;;4995849;28;20523;-79
2021/04/20 01:58:05;;;;;;;36.08;22.05;;;256.20;2252.80;;;;;;5012549;28;20033;-79
2021/04/20 02:00:31;;;;;;;33.75;21.52;;;256.20;2252.80;;;;;;5011706;28;20064;-80
2021/04/20 02:02:58;;;;;;;35.50;22.98;;;256.20;2252.80;;;;;;5012728;28;20072;-80
2021/04/20 02:05:24;;;;;;;35.53;22.50;;;256.10;2252.80;;;;;;4995484;28;20041;-80
2021/04/20 02:07:50;;;;;;;34.47;22.38;;;256.20;2252.80;;;;;;5022771;28;20038;-81
2021/04/20 02:10:16;;;;;;;;;;;256.10;2252.80;;;;;;5022697;28;20022;-81
2021/04/20 02:12:42;;;;;;;34.88;21.35;;;256.10;2252.80;;;;;;5005779;28;19915;-81
2021/04/20 02:15:11;;;;;;;33.72;23.23;;;256.10;2252.80;;;;;;5003224;28;20021;-81
2021/04/20 02:17:38;;;;;;;35.50;21.98;;;256.10;2252.80;;;;;;5021822;28;20032;-82
2021/04/20 02:20:06;;;;;;;33.33;21.77;;;256.20;2252.80;;;;;;5018430;28;20121;-81
2021/04/20 02:22:40;;;;;;;38.47;24.58;;;256.20;2252.80;;;;;;5013511;28;20092;-81
2021/04/20 02:25:07;;;;;;;32.92;21.20;;;256.10;2252.80;;;;;;4995667;28;20030;-82
2021/04/20 02:27:35;;;;;;;38.75;23.45;;;256.10;2252.80;;;;;;4995297;28;20053;-82
2021/04/20 02:30:03;;;;;;;36.22;22.42;;;256.10;2252.80;;;;;;4995723;28;20030;-81
2021/04/20 02:32:29;;;;;;;37.83;22.98;;;256.20;2252.80;;;;;;5012670;28;20013;-82
2021/04/20 02:34:58;;;;;;;30.73;20.98;;;256.10;2252.80;;;;;;4995264;28;20433;-81
2021/04/20 02:37:24;;;;;;;32.58;21.52;;;256.20;2252.80;;;;;;5012975;28;20033;-83
2021/04/20 02:39:49;;;;;;;;;;;256.20;2252.80;;;;;;5013329;28;20029;-82
2021/04/20 02:42:15;;;;;;;33.78;21.60;;;256.20;2252.80;;;;;;4995793;28;19905;-82
2021/04/20 02:44:41;;;;;;;33.38;21.63;;;256.20;2252.80;;;;;;5012720;28;20161;-80
2021/04/20 02:47:07;;;;;;;;;;;256.20;2252.80;;;;;;4996261;28;20022;-82
2021/04/20 02:49:36;;;;;;;39.70;22.17;;;256.20;2252.80;;;;;;4995302;28;19916;-82
2021/04/20 02:52:03;;;;;;;36.78;22.25;;;256.20;2252.80;;;;;;5013059;28;20021;-82
2021/04/20 02:54:28;;;;;;;32.78;21.27;;;256.10;2252.80;;;;;;4995021;28;20118;-81
2021/04/20 02:56:55;;;;;;;;;;;256.20;2252.80;;;;;;4995823;28;20106;-81
2021/04/20 02:59:22;;;;;;;37.10;22.92;;;256.10;2252.80;;;;;;4995116;28;19914;-82
2021/04/20 03:01:47;;;;;;;32.53;20.77;;;256.10;2252.80;;;;;;4994811;28;20065;-81
2021/04/20 03:04:14;;;;;;;;;;;256.10;2252.80;;;;;;5013270;28;20061;-80
2021/04/20 03:06:44;;;;;;;33.40;22.48;;;256.10;2252.80;;;;;;5012261;28;20387;-81
2021/04/20 03:09:11;;;;;;;35.55;23.50;;;256.10;2252.80;;;;;;4995229;28;20017;-82
2021/04/20 03:11:40;;;;;;;41.45;26.27;;;256.00;2252.80;;;;;;4994738;28;20026;-82
2021/04/20 03:14:06;;;;;;;40.80;24.88;;;256.00;2252.80;;;;;;4995174;28;20044;-81
2021/04/20 03:16:34;;;;;;;41.83;25.67;;;256.00;2252.80;;;;;;5011293;28;20018;-81
2021/04/20 03:19:01;;;;;;;42.28;26.85;;;231.20;2252.80;;;;;;4994693;28;20026;-81
2021/04/20 03:21:27;;;;;;;52.55;31.52;;;231.30;2252.80;;;;;;5012538;28;20030;-81
2021/04/20 03:23:55;;;;;;;51.17;30.58;;;231.30;2252.80;;;;;;5023020;28;20101;-81
2021/04/20 03:26:24;;;;;;;47.30;29.08;;;231.30;2252.80;;;;;;4994898;28;20113;-81
2021/04/20 03:28:54;;;;;;;46.10;30.50;;;231.30;2252.80;;;;;;5012100;28;20030;-81
2021/04/20 03:31:19;;;;;;;41.08;27.67;;;231.20;2252.80;;;;;;5015933;28;20025;-82
2021/04/20 03:33:47;;;;;;;;;;;231.10;2252.80;;;;;;5015942;28;20051;-81
2021/04/20 03:36:14;;;;;;;;;;;231.10;2252.80;;;;;;5012898;28;20390;-81
2021/04/20 03:38:53;;;;;;;41.13;26.15;;;231.10;2252.80;;;;;;4994435;28;19913;-82
2021/04/20 03:41:40;;;;;;;39.33;25.27;;;231.10;2252.80;;;;;;4994791;28;20037;-81
2021/04/20 03:44:09;;;;;;;39.92;26.15;;;231.10;2252.80;;;;;;4983158;28;20026;-81
2021/04/20 03:46:38;;;;;;;41.03;26.15;;;231.20;2252.80;;;;;;4994853;28;20088;-81
2021/04/20 03:49:38;;;;;;;41.03;25.30;;;231.20;2252.80;;;;;;5006825;28;20042;-81
2021/04/20 03:52:28;;;;;;;40.35;25.13;;;231.20;2252.80;;;;;;5001736;28;20022;-81
2021/04/20 03:54:56;;;;;;;41.72;26.02;;;231.20;2252.80;;;;;;5011756;28;20434;-81
2021/04/20 03:57:26;;;;;;;45.53;26.10;;;231.20;2252.80;;;;;;4994446;28;20475;-81
2021/04/20 03:59:54;;;;;;;37.72;26.00;;;231.20;2252.80;;;;;;4994653;28;20029;-82
2021/04/20 04:02:21;;;;;;;46.33;27.65;;;231.20;2252.80;;;;;;5012249;28;20018;-81
2021/04/20 04:04:48;;;;;;;44.50;25.85;;;231.30;2252.80;;;;;;4994389;28;20045;-82
2021/04/20 04:07:18;;;;;;;46.80;28.38;;;231.30;2252.80;;;;;;5023101;28;20046;-82
2021/04/20 04:09:45;;;;;;;47.97;28.48;;;231.20;2252.80;;;;;;4994045;28;20190;-82
2021/04/20 04:12:14;;;;;;;41.13;26.60;;;231.30;2252.80;;;;;;5014538;28;20097;-79
2021/04/20 04:14:40;;;;;;;48.67;27.60;;;256.00;2252.80;;;;;;5018387;28;20041;-79
2021/04/20 04:17:09;;;;;;;43.83;28.05;;;231.30;2252.80;;;;;;4994253;28;20026;-79
2021/04/20 04:19:46;;;;;;;47.10;28.15;;;231.30;2252.80;;;;;;4993882;28;20041;-80
2021/04/20 04:22:19;;;;;;;30.23;20.42;;;231.30;2252.80;;;;;;5011883;28;20018;-78
2021/04/20 04:24:57;;;;;;;46.30;28.30;;;231.30;2252.80;;;;;;5015171;28;20030;-78
2021/04/20 04:27:25;;;;;;;39.40;26.90;;;256.00;2252.80;;;;;;4997252;28;20100;-78
2021/04/20 04:29:55;;;;;;;39.20;26.75;;;256.00;2252.80;;;;;;4997397;28;20029;-78
2021/04/20 04:32:21;;;;;;;41.60;26.88;;;256.10;2252.80;;;;;;5015045;28;20018;-79
2021/04/20 04:34:48;;;;;;;45.38;27.50;;;256.10;2252.80;;;;;;5014795;28;20030;-79
2021/04/20 04:37:15;;;;;;;45.67;28.73;;;256.10;2252.80;;;;;;4999946;28;20038;-78
2021/04/20 04:39:45;;;;;;;58.95;33.13;;;256.00;2252.80;;;;;;5025192;28;20030;-79
2021/04/20 04:42:12;;;;;;;70.25;40.30;;;256.10;2252.80;;;;;;4996539;28;20108;-78
2021/04/20 04:44:38;;;;;;;59.92;37.83;;;256.00;2252.80;;;;;;5014604;28;20030;-79
2021/04/20 04:47:08;;;;;;;65.72;39.95;;;256.00;2252.80;;;;;;5014797;28;20022;-78
2021/04/20 04:49:36;;;;;;;71.15;40.72;;;231.30;2252.80;;;;;;5025361;28;20041;-78
2021/04/20 04:52:03;;;;;;;47.85;32.30;;;231.20;2252.80;;;;;;4996828;28;20089;-78
2021/04/20 04:54:29;;;;;;;42.45;28.02;;;231.20;2252.80;;;;;;5014384;28;20487;-78
2021/04/20 04:56:55;;;;;;;47.50;29.77;;;231.30;2252.80;;;;;;5014445;28;20061;-78
2021/04/20 04:59:24;;;;;;;45.70;28.83;;;231.30;2252.80;;;;;;5014478;28;20073;-78
2021/04/20 05:01:52;;;;;;;43.15;28.98;;;231.30;2252.80;;;;;;5008701;28;20018;-78
2021/04/20 05:04:23;;;;;;;40.78;27.35;;;231.30;2252.80;;;;;;5014290;28;20108;-78
2021/04/20 05:06:50;;;;;;;46.40;28.25;;;231.20;2252.80;;;;;;5013720;28;20111;-78
2021/04/20 05:09:21;;;;;;;42.58;27.90;;;231.20;2252.80;;;;;;5017018;28;20033;-78
2021/04/20 05:11:49;;;;;;;47.53;28.35;;;231.30;2252.80;;;;;;5002373;28;20417;-78
2021/04/20 05:14:18;;;;;;;47.63;29.40;;;231.20;2252.80;;;;;;5024121;28;20064;-79
2021/04/20 05:16:52;;;;;;;45.22;28.00;;;231.20;2252.80;;;;;;4996298;28;20399;-78
2021/04/20 05:19:29;;;;;;;44.60;27.88;;;231.30;2252.80;;;;;;4996294;28;20483;-79
2021/04/20 05:21:59;;;;;;;43.08;27.20;;;256.00;2252.80;;;;;;4996265;28;20034;-78
2021/04/20 05:24:25;;;;;;;38.58;25.92;;;256.00;2252.80;;;;;;4996435;28;20042;-77
2021/04/20 05:26:51;;;;;;;42.38;26.13;;;231.30;2252.80;;;;;;5014180;28;20026;-78
2021/04/20 05:29:17;;;;;;;40.40;26.55;;;256.00;2252.80;;;;;;5014096;28;20026;-79
2021/04/20 05:31:44;;;;;;;45.92;27.23;;;256.00;2252.80;;;;;;4996527;28;20099;-79
2021/04/20 05:34:10;;;;;;;38.70;26.67;;;256.00;2252.80;;;;;;4998197;28;20034;-77
2021/04/20 05:36:36;;;;;;;40.72;27.10;;;256.20;2252.80;;;;;;4995756;28;20030;-77
2021/04/20 05:39:11;;;;;;;40.83;27.30;;;256.20;2252.80;;;;;;5013894;28;20042;-79
2021/04/20 05:41:39;;;;;;;45.22;25.67;;;256.20;2252.80;;;;;;5013506;28;20033;-78
2021/04/20 05:44:10;;;;;;;44.78;28.40;;;256.10;2252.80;;;;;;5013060;28;20022;-78
2021/04/20 05:46:46;;;;;;;50.97;28.70;;;256.20;2252.80;;;;;;4995652;28;20026;-76
2021/04/20 05:49:14;;;;;;;45.15;28.13;;;256.30;2252.80;;;;;;5013091;28;20704;-76
2021/04/20 05:51:41;;;;;;;44.05;27.33;;;256.30;2252.80;;;;;;5011148;28;20029;-76
2021/04/20 05:54:08;;;;;;;42.05;27.85;;;256.20;2252.80;;;;;;4995360;28;20026;-76
2021/04/20 05:56:34;;;;;;;45.05;27.38;;;256.30;2252.80;;;;;;5012882;28;20076;-76
2021/04/20 05:59:04;;;;;;;50.10;30.33;;;256.40;2252.80;;;;;;5013119;28;20060;-78
2021/04/20 06:01:31;;;;;;;46.55;29.30;;;256.50;2252.80;;;;;;5010384;28;20049;-77
2021/04/20 06:03:57;;;;;;;62.70;29.55;;;256.50;2252.80;;;;;;5013032;28;20104;-78
2021/04/20 06:06:24;;;;;;;89.13;62.47;;;256.60;2252.80;;;;;;5013165;28;20046;-79
2021/04/20 06:08:52;;;;;;;50.25;37.20;;;256.70;2252.80;;;;;;4995748;28;20018;-80
2021/04/20 06:11:20;;;;;;;48.63;32.47;;;256.50;2252.80;;;;;;4992217;28;20034;-79
2021/04/20 06:13:47;;;;;;;44.13;29.98;;;256.80;2252.80;;;;;;5012924;28;20468;-76
2021/04/20 06:16:13;;;;;;;51.80;32.70;;;256.70;2252.80;;;;;;5012779;28;20030;-76
2021/04/20 06:18:41;;;;;;;48.78;31.90;;;256.60;2252.80;;;;;;4994785;28;20060;-78
2021/04/20 06:21:08;;;;;;;48.85;29.90;;;256.70;2252.80;;;;;;5012841;28;20025;-78
2021/04/20 06:23:36;;;;;;;47.33;30.15;;;256.90;2252.80;;;;;;4994794;28;20038;-77
2021/04/20 06:26:04;;;;;;;44.42;30.30;;;256.90;2252.80;;;;;;4995173;28;20487;-79
2021/04/20 06:28:32;;;;;;;52.60;31.20;;;256.90;2252.80;;;;;;4994895;28;20467;-79
2021/04/20 06:31:00;;;;;;;49.67;31.55;;;256.90;2252.80;;;;;;4991810;28;20022;-78
2021/04/20 06:33:26;;;;;;;49.78;30.00;;;256.90;2252.80;;;;;;5012465;28;20030;-79
2021/04/20 06:35:54;;;;;;;48.10;31.42;;;256.80;2252.80;;;;;;5012334;28;20076;-78
2021/04/20 06:38:20;;;;;;;51.67;32.03;;;256.90;2252.80;;;;;;4994936;28;20429;-76
2021/04/20 06:40:48;;;;;;;49.10;31.20;;;256.80;2252.80;;;;;;5012158;28;20141;-77
2021/04/20 06:43:20;;;;;;;49.17;28.73;;;256.90;2252.80;;;;;;5012456;28;20033;-78
2021/04/20 06:46:17;;;;;;;46.08;29.40;;;256.90;2252.80;;;;;;5012016;28;20032;-80
2021/04/20 06:48:56;;;;;;;48.72;29.20;;;281.60;2278.40;;;;;;4978808;28;20042;-80
2021/04/20 06:51:29;;;;;;;51.58;32.90;;;281.60;2278.40;;;;;;4998262;28;20021;-80
2021/04/20 06:54:23;;;;;;;49.00;31.55;;;281.60;2278.40;;;;;;5021720;28;20537;-79
2021/04/20 06:57:00;;;;;;;50.08;31.20;;;281.70;2278.40;;;;;;4994696;28;20022;-78
2021/04/20 06:59:51;;;;;;;47.00;29.90;;;281.70;2278.40;;;;;;5012265;28;20038;-79
2021/04/20 07:02:17;;;;;;;47.28;28.25;;;281.80;2278.40;;;;;;4976123;28;20026;-77
2021/04/20 07:04:44;;;;;;;49.75;31.98;;;281.80;2278.40;;;;;;5011921;28;20037;-76
2021/04/20 07:07:13;;;;;;;48.08;30.02;;;281.90;2278.40;;;;;;5012275;28;20042;-79
2021/04/20 07:10:17;;;;;;;53.38;30.23;;;281.90;2278.40;;;;;;5012078;28;20030;-77
2021/04/20 07:12:45;;;;;;;49.90;30.70;;;282.10;2278.40;;;;;;5007740;28;20496;-77
2021/04/20 07:15:16;;;;;;;52.42;31.75;;;282.10;2278.40;;;;;;4993275;28;20080;-78
2021/04/20 07:18:03;;;;;;;51.00;30.10;;;282.10;2278.40;;;;;;4994720;28;20030;-77
2021/04/20 07:21:06;;;;;;;47.15;29.85;;;282.10;2278.40;;;;;;5016467;28;20091;-76
2021/04/20 07:23:54;;;;;;;51.75;30.25;;;282.20;2278.40;;;;;;5015318;28;20030;-76
2021/04/20 07:26:28;;;;;;;48.45;29.58;;;282.30;2278.40;;;;;;5011756;28;20109;-78
2021/04/20 07:29:23;;;;;;;46.03;29.13;;;282.40;2278.40;;;;;;5011938;28;20029;-77
2021/04/20 07:32:13;;;;;;;48.97;31.25;;;282.40;2278.40;;;;;;5011727;28;20050;-77
2021/04/20 07:34:42;;;;;;;51.65;31.88;;;282.50;2278.40;;;;;;5011934;28;20026;-80
2021/04/20 07:37:29;;;;;;;50.08;31.85;;;282.50;2278.40;;;;;;4994252;28;20034;-76
2021/04/20 07:40:11;;;;;;;48.58;30.65;;;307.30;2304.00;;;;;;5012211;28;20411;-76
2021/04/20 07:43:06;;;;;;;45.70;29.77;;;307.30;2304.00;;;;;;5001336;28;20482;-77
2021/04/20 07:45:51;;;;;;;50.15;30.13;;;307.30;2304.00;;;;;;4988769;28;20036;-76
2021/04/20 07:48:45;;;;;;;51.75;31.65;;;307.50;2304.00;;;;;;5011356;28;20076;-75
2021/04/20 07:51:39;;;;;;;51.78;31.30;;;307.30;2304.00;;;;;;5010744;28;20109;-76
2021/04/20 07:54:13;;;;;;;54.17;34.65;;;307.40;2304.00;;;;;;5008760;28;20080;-76
2021/04/20 07:56:44;;;;;;;81.07;45.78;;;307.50;2304.00;;;;;;5011254;28;20014;-77
2021/04/20 07:59:20;;;;;;;66.00;40.03;;;307.50;2304.00;;;;;;5012936;28;20025;-77
2021/04/20 08:02:02;;;;;;;50.10;31.75;;;307.60;2304.00;;;;;;5015585;28;20022;-78
2021/04/20 08:04:55;;;;;;;50.00;32.22;;;307.50;2304.00;;;;;;5015250;28;20029;-77
2021/04/20 08:07:39;;;;;;;56.67;33.90;;;307.80;2278.40;;;;;;5015050;28;20560;-77
2021/04/20 08:10:09;;;;;;;49.20;31.38;;;307.90;2278.40;;;;;;5015270;28;20097;-76
2021/04/20 08:12:59;;;;;;;52.83;33.75;;;308.00;2278.40;;;;;;5015105;28;20026;-76
2021/04/20 08:15:39;;;;;;;55.80;36.78;;;308.00;2201.60;;;;;;5015102;28;20025;-76
2021/04/20 08:18:17;;;;;;;53.78;32.78;;;308.10;2227.20;;;;;;5015278;28;20151;-76
2021/04/20 08:20:46;;;;;;;55.30;37.20;;;308.10;2227.20;;;;;;4990835;28;20487;-76
2021/04/20 08:23:14;;;;;;;51.05;33.42;;;332.80;2227.20;;;;;;5014755;28;20053;-77
2021/04/20 08:25:50;;;;;;;52.67;32.63;;;332.80;2252.80;;;;;;5014906;28;20101;-76
2021/04/20 08:28:38;;;;;;;55.95;34.92;;;332.90;2252.80;;;;;;5012025;28;20101;-76
2021/04/20 08:31:23;;;;;;;52.20;32.47;;;333.00;2176.00;;;;;;4995440;28;20470;-76
2021/04/20 08:33:57;;;;;;;57.55;36.65;;;332.90;2201.60;;;;;;5015023;28;20010;-79
2021/04/20 08:36:45;;;;;;;56.00;33.55;;;333.00;2201.60;;;;;;5014373;28;20133;-77
2021/04/20 08:39:22;;;;;;;59.85;38.33;;;332.90;2227.20;;;;;;5013524;28;20030;-78
2021/04/20 08:42:03;;;;;;;56.47;36.15;;;332.90;2201.60;;;;;;4992773;28;20026;-79
2021/04/20 08:44:37;;;;;;;56.08;33.75;;;332.90;2176.00;;;;;;5014912;28;20018;-79
2021/04/20 08:47:18;;;;;;;49.75;32.25;;;332.90;2176.00;;;;;;5014629;28;20026;-77
2021/04/20 08:49:44;;;;;;;54.95;35.30;;;333.00;2176.00;;;;;;5014437;28;20022;-76
2021/04/20 08:52:28;;;;;;;62.15;36.05;;;333.00;2150.40;;;;;;5014836;28;20099;-76
2021/04/20 08:54:57;;;;;;;51.05;33.65;;;333.00;2150.40;;;;;;5014284;28;20026;-78
2021/04/20 08:57:54;;;;;;;54.22;35.92;;;332.90;2150.40;;;;;;5010905;28;20029;-76
2021/04/20 09:00:43;;;;;;;57.22;36.97;;;332.90;2150.40;;;;;;5012053;28;20064;-79
2021/04/20 09:03:27;;;;;;;50.65;31.60;;;332.90;2176.00;;;;;;5003192;28;20105;-77
2021/04/20 09:05:58;;;;;;;52.85;34.92;;;308.10;2150.40;;;;;;5001231;28;20113;-79
2021/04/20 09:08:36;;;;;;;56.13;34.00;;;332.80;2176.00;;;;;;5001988;28;20495;-75
2021/04/20 09:11:19;;;;;;;55.67;33.83;;;332.90;2176.00;;;;;;4999377;28;20045;-77
2021/04/20 09:14:00;;;;;;;52.53;33.35;;;332.90;2176.00;;;;;;5004257;28;20024;-77
2021/04/20 09:16:49;;;;;;;46.22;31.10;;;332.90;2176.00;;;;;;5005485;28;20022;-75
2021/04/20 09:19:26;;;;;;;54.13;31.52;;;333.10;2150.40;;;;;;5012633;28;20046;-77
2021/04/20 09:22:21;;;;;;;44.72;30.75;;;333.20;2176.00;;;;;;5012272;28;20026;-79
2021/04/20 09:25:18;;;;;;;40.03;27.20;;;333.20;2150.40;;;;;;4993955;28;20473;-77
2021/04/20 09:28:00;;;;;;;39.15;26.98;;;333.20;2099.20;;;;;;5011052;28;20034;-77
2021/04/20 09:30:28;;;;;;;45.13;29.73;;;333.30;2073.60;;;;;;5011001;28;20028;-77
2021/04/20 09:32:59;;;;;;;43.60;29.08;;;333.40;2073.60;;;;;;5013249;28;20049;-75
2021/04/20 09:35:27;;;;;;;46.00;28.35;;;333.30;2099.20;;;;;;5010938;28;20029;-77
2021/04/20 09:37:56;;;;;;;42.40;26.95;;;333.30;2073.60;;;;;;5013513;28;20068;-77
2021/04/20 09:40:25;;;;;;;47.88;29.33;;;333.50;2073.60;;;;;;5013032;28;20034;-76
2021/04/20 09:43:22;;;;;;;46.83;31.25;;;358.40;2073.60;;;;;;5013706;28;20483;-78
2021/04/20 09:46:00;;;;;;;44.40;28.42;;;358.70;2048.00;;;;;;5013800;28;20207;-77
2021/04/20 09:48:53;;;;;;;39.03;26.92;;;359.10;1971.20;;;;;;4993957;28;20022;-75
2021/04/20 09:51:23;;;;;;;40.85;26.13;;;359.20;1920.00;;;;;;5010482;28;20014;-79
2021/04/20 09:54:13;;;;;;;36.70;25.73;;;384.00;1894.40;;;;;;5009639;28;20021;-77
2021/04/20 09:56:47;;;;;;;39.00;25.27;;;;;;;;;;5013212;28;20468;-78
2021/04/20 09:59:19;;;;;;;40.72;28.23;;;384.50;1817.60;;;;;;5013397;28;20562;-76
2021/04/20 10:02:03;;;;;;;43.58;28.33;;;384.80;1843.20;;;;;;5013360;28;20078;-78
2021/04/20 10:04:41;;;;;;;42.72;28.23;;;384.80;1792.00;;;;;;4994059;28;20034;-77
2021/04/20 10:07:19;;;;;;;41.53;28.10;;;384.70;1817.60;;;;;;5011215;28;20053;-78
2021/04/20 10:09:52;;;;;;;45.55;28.45;;;384.30;1766.40;;;;;;5012939;28;20041;-78
2021/04/20 10:12:38;;;;;;;38.38;25.08;;;384.00;1792.00;;;;;;5012686;28;20045;-78
2021/04/20 10:15:16;;;;;;;46.65;26.60;;;359.30;1817.60;;;;;;5012846;28;20030;-74
2021/04/20 10:18:17;;;;;;;37.78;25.50;;;359.10;1843.20;;;;;;4996178;28;20030;-78
2021/04/20 10:21:09;;;;;;;41.80;27.73;;;359.20;1817.60;;;;;;4997379;28;20033;-78
2021/04/20 10:23:35;;;;;;;42.58;27.30;;;359.30;1868.80;;;;;;5000313;28;20042;-80
2021/04/20 10:26:14;;;;;;;38.95;26.45;;;359.20;1868.80;;;;;;4990248;28;20495;-80
2021/04/20 10:28:59;;;;;;;37.53;25.25;;;359.20;1843.20;;;;;;4992347;28;20029;-80
2021/04/20 10:31:44;;;;;;;41.40;26.30;;;384.40;1792.00;;;;;;4993429;28;20030;-80
2021/04/20 10:34:14;;;;;;;38.67;28.27;;;384.50;1792.00;;;;;;4991889;28;20022;-80
2021/04/20 10:36:41;;;;;;;37.53;25.48;;;409.60;1792.00;;;;;;4994990;28;20073;-80
2021/04/20 10:39:08;;;;;;;35.97;25.88;;;384.50;1740.80;;;;;;5011393;28;20040;-81
2021/04/20 10:41:36;;;;;;;40.03;27.40;;;384.30;1766.40;;;;;;4995030;28;20036;-83
2021/04/20 10:44:11;;;;;;;40.75;27.20;;;384.10;1792.00;;;;;;4992641;28;20109;-85
2021/04/20 10:46:38;;;;;;;41.22;28.40;;;384.20;1843.20;;;;;;5012707;28;20026;-79
2021/04/20 10:49:05;;;;;;;43.25;27.10;;;384.70;1792.00;;;;;;4995023;28;20030;-80
2021/04/20 10:51:37;;;;;;;49.13;27.30;;;409.90;1792.00;;;;;;5012365;28;20021;-79
2021/04/20 10:54:05;;;;;;;37.88;25.95;;;409.70;1792.00;;;;;;4995031;28;20075;-79
2021/04/20 10:56:31;;;;;;;39.45;27.73;;;410.10;1689.60;;;;;;4996661;28;20026;-78
2021/04/20 10:59:00;;;;;;;36.30;26.85;;;410.00;1740.80;;;;;;4994787;28;20041;-80
2021/04/20 11:01:29;;;;;;;42.53;27.55;;;409.70;1740.80;;;;;;4994330;28;20172;-79
2021/04/20 11:03:58;;;;;;;37.90;25.73;;;409.70;1766.40;;;;;;5012417;28;20040;-80
2021/04/20 11:06:42;;;;;;;33.88;23.60;;;409.90;1766.40;;;;;;4995665;28;20065;-79
2021/04/20 11:09:09;;;;;;;34.22;24.23;;;409.80;1766.40;;;;;;4995933;28;20149;-79
2021/04/20 11:11:35;;;;;;;32.15;23.08;;;409.90;1740.80;;;;;;4975090;28;20030;-79
2021/04/20 11:14:01;;;;;;;31.23;22.05;;;409.70;1664.00;;;;;;4975276;28;20050;-78
2021/04/20 11:16:36;;;;;;;33.97;21.92;;;409.90;1638.40;;;;;;5003632;28;20497;-79
2021/04/20 11:19:11;;;;;;;27.23;19.02;;;409.90;1689.60;;;;;;4992931;28;20042;-80
2021/04/20 11:21:39;;;;;;;30.08;20.52;;;409.90;1612.80;;;;;;5007953;28;20092;-79
2021/04/20 11:24:14;;;;;;;30.05;20.92;;;409.70;1612.80;;;;;;5011967;28;20049;-80
2021/04/20 11:26:43;;;;;;;33.53;23.70;;;384.90;1638.40;;;;;;5012036;28;20026;-80
2021/04/20 11:29:13;;;;;;;35.65;24.90;;;384.50;1664.00;;;;;;4993579;28;20044;-79
2021/04/20 11:31:46;;;;;;;33.90;23.63;;;384.30;1715.20;;;;;;4995162;28;20137;-81
2021/04/20 11:34:17;;;;;;;34.95;25.65;;;384.10;1766.40;;;;;;5015712;28;20053;-80
2021/04/20 11:36:57;;;;;;;35.95;24.17;;;384.30;1792.00;;;;;;5015848;28;20048;-80
2021/04/20 11:39:27;;;;;;;38.30;25.23;;;384.00;1817.60;;;;;;5014328;28;20499;-80
2021/04/20 11:42:10;;;;;;;38.53;25.73;;;359.30;1843.20;;;;;;4998235;28;20041;-80
2021/04/20 11:44:48;;;;;;;39.45;25.23;;;359.20;1817.60;;;;;;5015727;28;20041;-80
2021/04/20 11:47:15;;;;;;;37.85;26.02;;;359.00;1868.80;;;;;;5016042;28;20022;-78
2021/04/20 11:50:09;;;;;;;38.15;25.35;;;359.20;1843.20;;;;;;5014611;28;20084;-80
2021/04/20 11:52:35;;;;;;;42.67;26.63;;;359.00;1843.20;;;;;;4997825;28;20125;-80
2021/04/20 11:55:06;;;;;;;35.33;25.73;;;358.90;1868.80;;;;;;5015894;28;20030;-80
2021/04/20 11:57:34;;;;;;;35.17;22.92;;;359.00;1843.20;;;;;;4998267;28;20029;-80
2021/04/20 12:00:04;;;;;;;37.17;24.02;;;359.00;1817.60;;;;;;4997819;28;20041;-80
2021/04/20 12:02:30;;;;;;;30.50;21.88;;;359.00;1817.60;;;;;;4997613;28;20120;-80
2021/04/20 12:05:11;;;;;;;35.67;23.50;;;359.00;1817.60;;;;;;4997901;28;20034;-81
2021/04/20 12:07:38;;;;;;;33.08;22.00;;;359.00;1817.60;;;;;;4981600;28;20065;-81
2021/04/20 12:10:07;;;;;;;37.35;24.02;;;359.00;1766.40;;;;;;4977825;28;20660;-81
2021/04/20 12:12:35;;;;;;;35.60;24.45;;;359.10;1766.40;;;;;;4977838;28;20084;-81
2021/04/20 12:15:04;;;;;;;31.05;21.83;;;359.20;1792.00;;;;;;4977194;28;20034;-80
2021/04/20 12:17:40;;;;;;;35.03;22.85;;;359.20;1766.40;;;;;;4995352;28;20025;-80
2021/04/20 12:20:09;;;;;;;31.58;22.02;;;359.30;1766.40;;;;;;4995531;28;20027;-80
2021/04/20 12:22:35;;;;;;;37.95;24.25;;;359.30;1792.00;;;;;;4995234;28;20093;-81
2021/04/20 12:25:03;;;;;;;32.40;22.63;;;359.20;1817.60;;;;;;4994894;28;20038;-81
2021/04/20 12:27:31;;;;;;;31.98;21.05;;;359.30;1766.40;;;;;;4977247;28;20026;-81